Chadstone Weather > Observations for 12/09/20

Select Day:



Observations
Time Temp Hum DP Wind Gust Dir Rain >9am Press
C % C kph kph mm hPa
00:00 16.3 62 9.0 3.8 11.2 NW 0.0 1031.4
00:10 16.3 62 9.0 7.2 15.8 NW 0.0 1031.5
00:20 16.5 62 9.2 8.7 15.8 NW 0.0 1031.5
00:30 16.4 63 9.3 7.4 14.8 NNW 0.0 1031.1
00:40 16.0 65 9.4 6.2 13.3 NNW 0.0 1031.2
00:50 15.9 67 9.8 6.4 11.2 NNW 0.0 1031.0
01:00 15.8 68 9.9 8.1 15.8 N 0.0 1030.8
01:10 15.8 68 9.9 6.3 13.3 N 0.0 1030.7
01:20 15.7 70 10.3 3.7 7.2 NNE 0.3 1030.6
01:30 15.7 71 10.5 2.9 6.1 NNE 0.3 1030.4
01:40 15.6 73 10.8 1.8 6.1 N 0.3 1030.2
01:50 15.4 73 10.6 3.8 8.6 NNE 0.3 1030.2
02:00 15.3 73 10.5 5.6 9.7 NE 0.3 1030.1
02:10 15.4 70 10.0 5.6 9.7 N 0.3 1030.0
02:20 15.6 68 9.7 9.4 17.3 NNE 0.3 1029.6
02:30 15.8 66 9.5 10.8 19.4 N 0.3 1029.7
02:40 16.0 64 9.2 8.1 17.3 N 0.3 1029.7
02:50 16.0 63 9.0 9.0 19.4 N 0.3 1029.5
03:00 16.1 63 9.1 10.2 18.4 NNE 0.3 1029.3
03:10 16.1 62 8.8 9.3 23.4 NNW 0.3 1029.5
03:20 16.1 62 8.8 13.7 23.4 NNW 0.3 1029.3
03:30 16.1 62 8.8 9.5 18.4 NNW 0.3 1029.3
03:40 16.1 62 8.8 9.2 28.1 N 0.3 1028.9
03:50 16.1 61 8.6 13.2 23.4 N 0.3 1028.8
04:00 16.2 60 8.4 14.7 27.0 N 0.3 1028.4
04:10 16.2 60 8.4 12.8 25.6 NNW 0.3 1028.5
04:20 16.2 59 8.2 15.6 30.6 NNE 0.3 1028.5
04:30 16.2 59 8.2 14.9 29.5 NNE 0.3 1028.6
04:40 16.2 60 8.4 13.8 30.6 N 0.3 1028.9
04:50 16.1 61 8.6 11.6 28.1 N 0.3 1029.0
05:00 16.1 60 8.3 12.9 28.1 N 0.3 1029.2
05:10 16.2 59 8.2 13.5 24.5 N 0.3 1029.6
05:20 16.2 59 8.2 15.2 27.0 NNW 0.3 1029.6
05:30 16.2 62 8.9 14.7 30.6 N 0.3 1029.4
05:40 15.7 65 9.1 9.2 28.1 NNW 0.3 1030.1
05:50 15.5 67 9.4 6.0 13.3 N 0.3 1030.1
06:00 15.3 69 9.7 3.3 13.3 N 0.9 1030.6
06:10 15.1 72 10.1 3.2 7.2 N 1.2 1030.7
06:20 14.9 75 10.5 3.6 8.6 N 1.2 1031.0
06:30 14.6 75 10.2 4.3 8.6 N 1.2 1030.7
06:40 14.5 76 10.3 5.3 9.7 N 1.2 1031.0
06:50 14.5 76 10.3 5.4 11.2 NNW 1.2 1031.4
07:00 14.6 76 10.4 4.3 9.7 NNW 1.2 1031.5
07:10 14.5 76 10.3 7.0 13.3 N 1.5 1031.5
07:20 14.4 76 10.2 5.4 14.8 NNW 1.5 1031.6
07:30 14.4 77 10.4 7.8 17.3 NNW 1.5 1031.9
07:40 14.4 76 10.2 8.5 19.4 NNW 1.5 1032.1
07:50 14.7 75 10.3 10.1 20.9 NW 1.5 1032.2
08:00 14.7 74 10.1 12.1 29.5 NNW 1.5 1032.6
08:10 14.6 74 10.0 10.5 23.4 NNW 1.8 1032.7
08:20 14.2 75 9.8 11.7 18.4 NW 2.1 1032.9
08:30 14.0 76 9.8 10.6 24.5 NNW 2.1 1032.9
08:40 13.7 78 9.9 11.6 22.0 N 2.4 1033.1
08:50 13.6 79 10.0 11.6 19.4 N 2.7 1033.1
09:00 13.5 81 10.3 8.9 18.4 NNW 0.0 1032.6
09:10 13.4 84 10.8 6.0 15.8 NNE 0.3 1032.6
09:20 13.3 85 10.8 5.4 11.2 NNW 0.3 1032.6
09:30 13.3 86 11.0 4.2 8.6 NW 0.3 1032.8
09:40 13.4 86 11.1 4.6 8.6 WNW 0.3 1032.8
09:50 13.4 87 11.3 4.3 8.6 NNW 0.6 1032.8
10:00 13.4 88 11.5 2.5 7.2 NNW 0.6 1032.6
10:10 13.5 88 11.6 3.3 7.2 NW 0.6 1032.5
10:20 13.5 88 11.6 3.0 8.6 N 0.6 1032.5
10:30 13.5 88 11.6 1.5 7.2 NNW 0.6 1032.3
10:40 13.7 89 11.9 2.5 6.1 NNE 0.6 1031.9
10:50 13.9 89 12.1 3.7 8.6 NNE 0.6 1031.7
11:00 13.9 89 12.1 5.7 11.2 N 0.6 1031.5
11:10 14.0 88 12.0 4.1 7.2 N 0.6 1031.4
11:20 14.0 88 12.0 4.2 9.7 NNW 0.6 1031.2
11:30 14.2 87 12.1 2.9 6.1 NNW 0.6 1031.2
11:40 14.2 86 11.9 4.3 7.2 N 0.6 1031.4
11:50 14.3 85 11.8 3.8 8.6 NNW 0.6 1031.3
12:00 14.5 85 12.0 4.9 9.7 N 0.6 1031.1
12:10 14.6 84 11.9 5.1 12.2 N 0.6 1030.9
12:20 14.8 84 12.1 3.8 11.2 N 0.6 1030.6
12:30 14.8 84 12.1 5.5 11.2 NNE 0.6 1030.3
12:40 14.9 82 11.9 7.9 17.3 N 0.6 1029.9
12:50 15.0 80 11.6 9.9 22.0 N 0.6 1029.5
13:00 15.1 78 11.3 9.5 18.4 N 0.6 1029.2
13:10 15.2 78 11.4 7.6 15.8 NNW 0.6 1029.3
13:20 15.3 77 11.3 7.2 19.4 NNE 0.6 1029.1
13:30 15.4 76 11.2 10.2 19.4 NNW 0.6 1028.2
13:40 15.5 74 10.9 15.0 28.1 N 0.6 1027.8
13:50 15.7 74 11.1 7.5 19.4 N 0.6 1028.3
14:00 15.8 74 11.2 2.9 11.2 SSW 0.6 1028.1
14:10 15.9 73 11.1 5.2 11.2 NW 0.6 1028.1
14:20 15.9 73 11.1 5.2 9.7 WNW 0.6 1028.2
14:30 15.9 73 11.1 5.1 11.2 WNW 0.6 1028.1
14:40 15.8 74 11.2 4.4 9.7 WNW 0.6 1027.9
14:50 15.7 74 11.1 4.4 7.2 NW 0.9 1027.5
15:00 15.5 75 11.1 3.9 7.2 NW 1.2 1027.0
15:10 15.5 77 11.5 1.7 5.0 NNE 1.2 1026.7
15:20 15.5 82 12.4 0.6 3.6 NE 1.2 1026.7
15:30 15.4 84 12.7 0.3 2.5 SE 1.2 1026.6
15:40 15.3 85 12.8 0.0 0.0 N 1.2 1026.8
15:50 15.3 86 13.0 0.0 0.0 N 1.5 1026.8
16:00 15.3 87 13.2 0.0 0.0 N 1.5 1027.0
16:10 15.2 88 13.2 0.0 0.0 N 1.8 1026.9
16:20 15.0 88 13.0 0.4 3.6 SW 1.8 1026.9
16:30 14.7 90 13.1 1.8 6.1 SW 1.8 1026.9
16:40 14.6 90 13.0 1.3 6.1 SW 1.8 1026.9
16:50 14.6 90 13.0 0.6 3.6 SSE 1.8 1026.7
17:00 14.7 90 13.1 0.1 2.5 E 1.8 1026.7
17:10 14.7 91 13.3 0.3 2.5 E 1.8 1026.5
17:20 14.6 91 13.2 0.4 3.6 SE 1.8 1026.5
17:30 14.5 91 13.1 0.5 2.5 SE 1.8 1026.5
17:40 14.4 92 13.1 0.1 2.5 S 1.8 1026.5
17:50 14.3 92 13.0 0.0 1.1 SW 1.8 1026.5
18:00 14.2 92 12.9 0.0 0.0 N 1.8 1026.3
18:10 14.2 93 13.1 0.0 0.0 N 1.8 1025.9
18:20 14.1 93 13.0 0.5 3.6 SSE 2.1 1025.9
18:30 14.0 93 12.9 0.0 1.1 S 2.1 1025.7
18:40 14.0 93 12.9 0.0 0.0 N 2.1 1025.7
18:50 13.9 95 13.1 0.0 1.1 S 2.1 1025.8
19:00 13.8 95 13.0 0.0 2.5 SW 2.1 1026.1
19:10 13.8 95 13.0 0.0 2.5 W 2.1 1026.2
19:20 13.7 95 12.9 0.2 3.6 SW 2.1 1026.4
19:30 13.7 95 12.9 0.6 3.6 SW 2.4 1026.3
19:40 13.7 95 12.9 0.2 3.6 SSW 2.4 1026.2
19:50 13.7 95 12.9 0.1 2.5 SW 2.4 1026.2
20:00 13.7 95 12.9 0.0 0.0 N 2.4 1026.3
20:10 13.5 95 12.7 0.0 0.0 N 2.4 1026.3
20:20 13.5 95 12.7 0.0 1.1 SW 2.7 1026.3
20:30 13.5 95 12.7 0.3 3.6 SW 2.7 1026.3
20:40 13.7 95 12.9 0.8 3.6 SW 2.7 1026.3
20:50 13.7 96 13.1 1.0 5.0 SW 3.0 1026.3
21:00 13.5 96 12.9 0.5 5.0 W 3.0 1026.4
21:10 13.6 96 13.0 0.4 2.5 SW 3.0 1026.6
21:20 13.6 96 13.0 0.9 5.0 W 3.0 1026.7
21:30 13.7 96 13.1 1.0 6.1 W 3.3 1026.7
21:40 13.6 96 13.0 2.9 7.2 W 3.6 1026.9
21:50 13.5 96 12.9 2.8 7.2 WNW 3.9 1026.9
22:00 13.6 96 13.0 1.0 3.6 WNW 4.2 1027.0
22:10 13.6 96 13.0 1.1 3.6 NW 4.8 1026.9
22:20 13.6 97 13.1 0.8 3.6 NW 5.1 1027.0
22:30 13.5 97 13.0 1.7 3.6 NNW 5.7 1027.1
22:40 13.5 97 13.0 2.0 5.0 N 6.0 1026.9
22:50 13.5 97 13.0 1.6 5.0 N 6.3 1026.9
23:00 13.5 97 13.0 2.9 7.2 NNE 6.6 1026.7
23:10 13.5 97 13.0 4.6 9.7 N 6.9 1026.9
23:20 13.4 97 12.9 2.7 8.6 NW 7.8 1027.2
23:30 13.3 98 13.0 4.7 14.8 NNE 9.0 1026.4
23:40 13.3 98 13.0 7.4 14.8 NNE 9.3 1026.5
23:50 13.2 98 12.9 3.7 13.3 NNE 9.6 1026.6